sensor_id;sensor_type;location;lat;lon;timestamp;pressure;altitude;pressure_sealevel;temperature;humidity
71299;BME280;59083;47.974;21.722;2022-08-11T00:01:34;100898.47;;;18.11;58.96
71299;BME280;59083;47.974;21.722;2022-08-11T00:04:38;100895.41;;;18.08;59.42
71299;BME280;59083;47.974;21.722;2022-08-11T00:07:44;100900.19;;;18.06;59.53
71299;BME280;59083;47.974;21.722;2022-08-11T00:10:52;100892.56;;;18.03;59.92
71299;BME280;59083;47.974;21.722;2022-08-11T00:13:54;100892.22;;;17.99;60.14
71299;BME280;59083;47.974;21.722;2022-08-11T00:20:03;100885.66;;;17.89;60.74
71299;BME280;59083;47.974;21.722;2022-08-11T00:23:10;100890.31;;;17.82;60.84
71299;BME280;59083;47.974;21.722;2022-08-11T00:26:13;100889.91;;;17.78;61.22
71299;BME280;59083;47.974;21.722;2022-08-11T00:29:16;100884.69;;;17.58;62.06
71299;BME280;59083;47.974;21.722;2022-08-11T00:32:18;100886.75;;;17.56;62.34
71299;BME280;59083;47.974;21.722;2022-08-11T00:35:24;100888.16;;;17.41;63.17
71299;BME280;59083;47.974;21.722;2022-08-11T00:38:30;100891.94;;;17.33;63.39
71299;BME280;59083;47.974;21.722;2022-08-11T00:41:39;100894.63;;;17.33;63.75
71299;BME280;59083;47.974;21.722;2022-08-11T00:51:35;100887.38;;;17.33;63.66
71299;BME280;59083;47.974;21.722;2022-08-11T01:05:10;100885.00;;;17.19;64.52
71299;BME280;59083;47.974;21.722;2022-08-11T01:12:17;100879.69;;;17.06;65.36
71299;BME280;59083;47.974;21.722;2022-08-11T01:18:52;100879.34;;;16.96;65.77
71299;BME280;59083;47.974;21.722;2022-08-11T01:32:27;100866.75;;;16.89;66.25
71299;BME280;59083;47.974;21.722;2022-08-11T01:35:47;100865.72;;;16.90;65.87
71299;BME280;59083;47.974;21.722;2022-08-11T01:46:26;100869.00;;;16.92;66.63
71299;BME280;59083;47.974;21.722;2022-08-11T01:49:39;100864.84;;;16.97;66.63
71299;BME280;59083;47.974;21.722;2022-08-11T02:00:06;100866.69;;;17.03;65.93
71299;BME280;59083;47.974;21.722;2022-08-11T02:06:54;100869.75;;;17.06;66.12
71299;BME280;59083;47.974;21.722;2022-08-11T02:13:33;100866.94;;;16.94;66.61
71299;BME280;59083;47.974;21.722;2022-08-11T02:23:26;100869.03;;;16.86;67.33
71299;BME280;59083;47.974;21.722;2022-08-11T02:26:49;100865.28;;;16.93;66.85
71299;BME280;59083;47.974;21.722;2022-08-11T02:30:05;100862.88;;;16.85;66.94
71299;BME280;59083;47.974;21.722;2022-08-11T02:33:15;100853.66;;;16.68;67.50
71299;BME280;59083;47.974;21.722;2022-08-11T02:36:32;100850.44;;;16.84;66.60
71299;BME280;59083;47.974;21.722;2022-08-11T02:39:45;100856.59;;;16.91;66.30
71299;BME280;59083;47.974;21.722;2022-08-11T02:46:03;100853.31;;;16.89;66.29
71299;BME280;59083;47.974;21.722;2022-08-11T02:49:18;100851.97;;;16.99;66.16
71299;BME280;59083;47.974;21.722;2022-08-11T02:53:02;100862.16;;;16.97;66.32
71299;BME280;59083;47.974;21.722;2022-08-11T02:56:15;100863.66;;;16.86;66.64
71299;BME280;59083;47.974;21.722;2022-08-11T03:06:22;100856.53;;;16.67;67.30
71299;BME280;59083;47.974;21.722;2022-08-11T03:09:41;100851.38;;;16.59;67.75
71299;BME280;59083;47.974;21.722;2022-08-11T03:12:58;100848.28;;;16.55;68.49
71299;BME280;59083;47.974;21.722;2022-08-11T03:16:54;100853.44;;;16.63;67.56
71299;BME280;59083;47.974;21.722;2022-08-11T03:23:38;100851.41;;;16.52;68.04
71299;BME280;59083;47.974;21.722;2022-08-11T03:33:28;100853.91;;;16.47;68.38
71299;BME280;59083;47.974;21.722;2022-08-11T03:48:06;100853.13;;;16.40;68.69
71299;BME280;59083;47.974;21.722;2022-08-11T03:51:28;100848.59;;;16.34;69.04
71299;BME280;59083;47.974;21.722;2022-08-11T03:57:52;100841.13;;;16.36;68.98
71299;BME280;59083;47.974;21.722;2022-08-11T04:08:05;100855.62;;;16.35;69.28
71299;BME280;59083;47.974;21.722;2022-08-11T04:31:51;100853.56;;;22.20;50.85
71299;BME280;59083;47.974;21.722;2022-08-11T05:00:07;100857.75;;;25.77;40.61
71299;BME280;59083;47.974;21.722;2022-08-11T05:07:40;100854.91;;;26.18;39.89
71299;BME280;59083;47.974;21.722;2022-08-11T05:17:52;100863.91;;;26.83;38.79
71299;BME280;59083;47.974;21.722;2022-08-11T05:21:16;100855.72;;;26.78;38.39
71299;BME280;59083;47.974;21.722;2022-08-11T05:24:45;100858.09;;;27.33;36.98
71299;BME280;59083;47.974;21.722;2022-08-11T05:28:17;100852.53;;;26.65;38.42
71299;BME280;59083;47.974;21.722;2022-08-11T05:31:42;100852.66;;;27.86;36.65
71299;BME280;59083;47.974;21.722;2022-08-11T05:35:06;100849.56;;;27.35;37.05
71299;BME280;59083;47.974;21.722;2022-08-11T05:38:24;100856.41;;;26.54;38.65
71299;BME280;59083;47.974;21.722;2022-08-11T05:41:46;100851.06;;;26.29;38.99
71299;BME280;59083;47.974;21.722;2022-08-11T05:45:12;100852.12;;;27.84;36.23
71299;BME280;59083;47.974;21.722;2022-08-11T05:48:35;100851.50;;;28.40;35.07
71299;BME280;59083;47.974;21.722;2022-08-11T05:51:55;100849.03;;;29.32;33.38
71299;BME280;59083;47.974;21.722;2022-08-11T05:55:15;100853.34;;;29.38;33.30
71299;BME280;59083;47.974;21.722;2022-08-11T05:58:38;100849.47;;;29.98;32.16
71299;BME280;59083;47.974;21.722;2022-08-11T06:01:41;100845.25;;;29.60;32.62
71299;BME280;59083;47.974;21.722;2022-08-11T06:04:44;100844.19;;;28.91;34.06
71299;BME280;59083;47.974;21.722;2022-08-11T06:07:47;100842.66;;;29.17;33.42
71299;BME280;59083;47.974;21.722;2022-08-11T06:10:49;100850.91;;;30.10;31.88
71299;BME280;59083;47.974;21.722;2022-08-11T06:13:50;100847.31;;;30.50;30.75
71299;BME280;59083;47.974;21.722;2022-08-11T06:16:56;100850.34;;;29.80;31.79
71299;BME280;59083;47.974;21.722;2022-08-11T06:20:01;100834.59;;;30.76;30.25
71299;BME280;59083;47.974;21.722;2022-08-11T06:23:05;100842.97;;;30.71;30.27
71299;BME280;59083;47.974;21.722;2022-08-11T06:26:08;100850.00;;;31.13;30.05
71299;BME280;59083;47.974;21.722;2022-08-11T06:29:10;100853.75;;;30.05;30.94
71299;BME280;59083;47.974;21.722;2022-08-11T06:32:12;100842.22;;;30.57;30.54
71299;BME280;59083;47.974;21.722;2022-08-11T06:35:22;100846.09;;;30.56;30.12
71299;BME280;59083;47.974;21.722;2022-08-11T06:41:52;100851.22;;;29.94;30.71
71299;BME280;59083;47.974;21.722;2022-08-11T06:45:06;100839.03;;;28.66;32.84
71299;BME280;59083;47.974;21.722;2022-08-11T06:48:21;100841.16;;;28.93;32.61
71299;BME280;59083;47.974;21.722;2022-08-11T06:51:23;100839.59;;;29.97;30.99
71299;BME280;59083;47.974;21.722;2022-08-11T06:54:25;100831.75;;;30.05;30.96
71299;BME280;59083;47.974;21.722;2022-08-11T06:57:27;100829.22;;;30.22;30.76
71299;BME280;59083;47.974;21.722;2022-08-11T07:00:48;100837.50;;;28.97;32.29
71299;BME280;59083;47.974;21.722;2022-08-11T07:04:03;100838.81;;;29.18;31.88
71299;BME280;59083;47.974;21.722;2022-08-11T07:14:49;100837.00;;;29.28;31.72
71299;BME280;59083;47.974;21.722;2022-08-11T07:18:13;100834.88;;;30.39;30.91
71299;BME280;59083;47.974;21.722;2022-08-11T07:21:36;100838.00;;;31.09;29.70
71299;BME280;59083;47.974;21.722;2022-08-11T07:25:03;100828.84;;;32.32;27.68
71299;BME280;59083;47.974;21.722;2022-08-11T07:28:28;100845.69;;;31.21;28.95
71299;BME280;59083;47.974;21.722;2022-08-11T07:31:50;100840.44;;;29.52;31.23
71299;BME280;59083;47.974;21.722;2022-08-11T07:35:03;100842.84;;;31.35;29.13
71299;BME280;59083;47.974;21.722;2022-08-11T07:38:22;100847.78;;;31.02;29.29
71299;BME280;59083;47.974;21.722;2022-08-11T07:41:25;100843.06;;;31.47;28.59
71299;BME280;59083;47.974;21.722;2022-08-11T07:44:29;100840.28;;;31.38;28.68
71299;BME280;59083;47.974;21.722;2022-08-11T07:47:31;100839.25;;;31.96;27.83
71299;BME280;59083;47.974;21.722;2022-08-11T07:50:53;100830.13;;;31.78;28.35
71299;BME280;59083;47.974;21.722;2022-08-11T07:54:14;100841.66;;;31.49;28.80
71299;BME280;59083;47.974;21.722;2022-08-11T07:57:15;100837.00;;;30.92;28.92
71299;BME280;59083;47.974;21.722;2022-08-11T08:00:47;100829.44;;;31.42;28.52
71299;BME280;59083;47.974;21.722;2022-08-11T08:04:11;100834.22;;;29.46;31.17
71299;BME280;59083;47.974;21.722;2022-08-11T08:07:31;100826.94;;;31.32;28.94
71299;BME280;59083;47.974;21.722;2022-08-11T08:10:53;100822.16;;;30.79;29.22
71299;BME280;59083;47.974;21.722;2022-08-11T08:14:15;100817.19;;;31.56;28.24
71299;BME280;59083;47.974;21.722;2022-08-11T08:17:37;100814.69;;;30.57;28.98
71299;BME280;59083;47.974;21.722;2022-08-11T08:20:54;100815.31;;;30.54;29.39
71299;BME280;59083;47.974;21.722;2022-08-11T08:23:57;100812.34;;;30.87;28.61
71299;BME280;59083;47.974;21.722;2022-08-11T08:26:58;100812.81;;;30.66;28.85
71299;BME280;59083;47.974;21.722;2022-08-11T08:30:02;100800.88;;;29.80;30.16
71299;BME280;59083;47.974;21.722;2022-08-11T08:36:25;100802.56;;;30.58;29.13
71299;BME280;59083;47.974;21.722;2022-08-11T08:39:26;100797.94;;;30.67;29.18
71299;BME280;59083;47.974;21.722;2022-08-11T08:42:31;100794.94;;;30.55;29.06
71299;BME280;59083;47.974;21.722;2022-08-11T08:45:36;100776.53;;;31.62;27.74
71299;BME280;59083;47.974;21.722;2022-08-11T08:48:38;100784.19;;;30.67;28.72
71299;BME280;59083;47.974;21.722;2022-08-11T08:51:42;100782.03;;;30.64;28.85
71299;BME280;59083;47.974;21.722;2022-08-11T08:54:50;100784.72;;;30.56;28.74
71299;BME280;59083;47.974;21.722;2022-08-11T08:57:54;100781.16;;;31.00;28.72
71299;BME280;59083;47.974;21.722;2022-08-11T09:01:01;100781.53;;;29.85;30.12
71299;BME280;59083;47.974;21.722;2022-08-11T09:04:06;100781.34;;;30.23;29.84
71299;BME280;59083;47.974;21.722;2022-08-11T09:07:14;100777.38;;;29.61;30.78
71299;BME280;59083;47.974;21.722;2022-08-11T09:10:17;100771.50;;;30.44;29.90
71299;BME280;59083;47.974;21.722;2022-08-11T09:13:20;100766.81;;;30.81;28.90
71299;BME280;59083;47.974;21.722;2022-08-11T09:16:21;100778.22;;;30.38;29.09
71299;BME280;59083;47.974;21.722;2022-08-11T09:19:25;100778.34;;;30.33;29.39
71299;BME280;59083;47.974;21.722;2022-08-11T09:22:28;100766.28;;;29.66;29.75
71299;BME280;59083;47.974;21.722;2022-08-11T09:25:54;100757.78;;;28.89;31.15
71299;BME280;59083;47.974;21.722;2022-08-11T09:29:14;100759.50;;;29.31;30.66
71299;BME280;59083;47.974;21.722;2022-08-11T09:32:19;100759.34;;;28.20;32.37
71299;BME280;59083;47.974;21.722;2022-08-11T09:35:21;100748.19;;;28.11;31.77
71299;BME280;59083;47.974;21.722;2022-08-11T09:38:25;100760.38;;;27.58;32.71
71299;BME280;59083;47.974;21.722;2022-08-11T09:41:46;100755.97;;;27.04;34.14
71299;BME280;59083;47.974;21.722;2022-08-11T09:44:48;100746.84;;;29.02;31.31
71299;BME280;59083;47.974;21.722;2022-08-11T09:47:50;100736.81;;;28.79;30.99
71299;BME280;59083;47.974;21.722;2022-08-11T09:50:58;100739.78;;;28.64;31.34
71299;BME280;59083;47.974;21.722;2022-08-11T09:54:01;100745.63;;;29.22;30.65
71299;BME280;59083;47.974;21.722;2022-08-11T09:57:07;100736.47;;;27.87;32.18
71299;BME280;59083;47.974;21.722;2022-08-11T10:00:29;100737.12;;;27.79;32.26
71299;BME280;59083;47.974;21.722;2022-08-11T10:03:32;100742.81;;;27.06;33.72
71299;BME280;59083;47.974;21.722;2022-08-11T10:06:38;100735.50;;;27.25;33.36
71299;BME280;59083;47.974;21.722;2022-08-11T10:10:01;100725.37;;;27.26;33.31
71299;BME280;59083;47.974;21.722;2022-08-11T10:13:06;100724.38;;;28.30;31.99
71299;BME280;59083;47.974;21.722;2022-08-11T10:16:09;100725.22;;;27.65;32.75
71299;BME280;59083;47.974;21.722;2022-08-11T10:19:11;100714.16;;;28.17;31.81
71299;BME280;59083;47.974;21.722;2022-08-11T10:22:15;100717.38;;;28.57;30.91
71299;BME280;59083;47.974;21.722;2022-08-11T10:25:36;100720.50;;;28.50;30.93
71299;BME280;59083;47.974;21.722;2022-08-11T10:28:59;100711.06;;;28.24;31.08
71299;BME280;59083;47.974;21.722;2022-08-11T10:32:01;100720.50;;;27.70;31.33
71299;BME280;59083;47.974;21.722;2022-08-11T10:35:22;100704.97;;;27.13;32.09
71299;BME280;59083;47.974;21.722;2022-08-11T10:38:26;100701.72;;;27.11;32.36
71299;BME280;59083;47.974;21.722;2022-08-11T10:41:28;100699.38;;;26.65;32.87
71299;BME280;59083;47.974;21.722;2022-08-11T10:44:51;100698.78;;;26.68;33.45
71299;BME280;59083;47.974;21.722;2022-08-11T10:47:54;100701.50;;;27.31;32.31
71299;BME280;59083;47.974;21.722;2022-08-11T10:50:57;100687.78;;;27.60;31.67
71299;BME280;59083;47.974;21.722;2022-08-11T10:54:14;100694.63;;;27.58;31.36
71299;BME280;59083;47.974;21.722;2022-08-11T10:57:34;100689.81;;;26.97;32.65
71299;BME280;59083;47.974;21.722;2022-08-11T11:00:55;100694.16;;;26.69;32.67
71299;BME280;59083;47.974;21.722;2022-08-11T11:07:21;100681.94;;;26.56;32.98
71299;BME280;59083;47.974;21.722;2022-08-11T11:10:24;100676.22;;;27.63;31.71
71299;BME280;59083;47.974;21.722;2022-08-11T11:13:26;100668.31;;;27.62;31.68
71299;BME280;59083;47.974;21.722;2022-08-11T11:16:47;100670.03;;;27.29;32.07
71299;BME280;59083;47.974;21.722;2022-08-11T11:20:07;100674.44;;;27.01;32.22
71299;BME280;59083;47.974;21.722;2022-08-11T11:23:24;100666.47;;;26.76;32.37
71299;BME280;59083;47.974;21.722;2022-08-11T11:26:47;100667.72;;;26.54;32.28
71299;BME280;59083;47.974;21.722;2022-08-11T11:36:49;100659.16;;;26.37;32.09
71299;BME280;59083;47.974;21.722;2022-08-11T11:39:53;100643.53;;;27.00;31.42
71299;BME280;59083;47.974;21.722;2022-08-11T11:42:56;100638.19;;;26.85;31.78
71299;BME280;59083;47.974;21.722;2022-08-11T11:45:59;100645.97;;;27.02;31.59
71299;BME280;59083;47.974;21.722;2022-08-11T11:49:01;100628.28;;;26.65;33.16
71299;BME280;59083;47.974;21.722;2022-08-11T11:52:15;100624.56;;;26.80;33.03
71299;BME280;59083;47.974;21.722;2022-08-11T11:55:21;100631.38;;;26.88;33.60
71299;BME280;59083;47.974;21.722;2022-08-11T11:58:23;100628.94;;;27.34;32.82
71299;BME280;59083;47.974;21.722;2022-08-11T12:01:43;100628.25;;;27.66;32.59
71299;BME280;59083;47.974;21.722;2022-08-11T12:04:45;100635.56;;;27.04;32.50
71299;BME280;59083;47.974;21.722;2022-08-11T12:07:49;100641.75;;;26.86;32.50
71299;BME280;59083;47.974;21.722;2022-08-11T12:11:11;100631.81;;;26.95;32.40
71299;BME280;59083;47.974;21.722;2022-08-11T12:14:31;100622.03;;;26.89;32.75
71299;BME280;59083;47.974;21.722;2022-08-11T12:17:34;100618.50;;;26.88;32.76
71299;BME280;59083;47.974;21.722;2022-08-11T12:20:37;100617.47;;;26.79;32.91
71299;BME280;59083;47.974;21.722;2022-08-11T12:23:39;100624.09;;;27.02;32.57
71299;BME280;59083;47.974;21.722;2022-08-11T12:26:59;100614.56;;;26.70;33.04
71299;BME280;59083;47.974;21.722;2022-08-11T12:30:19;100608.97;;;26.81;33.03
71299;BME280;59083;47.974;21.722;2022-08-11T12:33:21;100615.81;;;26.49;33.26
71299;BME280;59083;47.974;21.722;2022-08-11T12:36:22;100613.41;;;26.48;33.62
71299;BME280;59083;47.974;21.722;2022-08-11T12:39:32;100604.94;;;26.44;33.21
71299;BME280;59083;47.974;21.722;2022-08-11T12:42:54;100604.28;;;26.57;32.89
71299;BME280;59083;47.974;21.722;2022-08-11T12:46:22;100603.66;;;26.65;32.92
71299;BME280;59083;47.974;21.722;2022-08-11T12:49:25;100597.13;;;27.14;32.63
71299;BME280;59083;47.974;21.722;2022-08-11T12:52:50;100602.87;;;27.36;32.02
71299;BME280;59083;47.974;21.722;2022-08-11T12:55:55;100594.06;;;26.97;32.40
71299;BME280;59083;47.974;21.722;2022-08-11T12:59:18;100598.41;;;26.98;32.34
71299;BME280;59083;47.974;21.722;2022-08-11T13:02:39;100598.41;;;26.98;32.13
71299;BME280;59083;47.974;21.722;2022-08-11T13:06:01;100593.72;;;26.74;32.38
71299;BME280;59083;47.974;21.722;2022-08-11T13:09:05;100583.44;;;26.90;32.93
71299;BME280;59083;47.974;21.722;2022-08-11T13:12:07;100581.88;;;27.08;33.15
71299;BME280;59083;47.974;21.722;2022-08-11T13:15:28;100593.00;;;26.93;33.02
71299;BME280;59083;47.974;21.722;2022-08-11T13:18:33;100584.09;;;26.77;32.93
71299;BME280;59083;47.974;21.722;2022-08-11T13:21:34;100584.16;;;26.48;33.55
71299;BME280;59083;47.974;21.722;2022-08-11T13:24:36;100574.38;;;26.42;33.33
71299;BME280;59083;47.974;21.722;2022-08-11T13:27:38;100577.00;;;26.52;32.81
71299;BME280;59083;47.974;21.722;2022-08-11T13:30:40;100571.94;;;26.64;32.64
71299;BME280;59083;47.974;21.722;2022-08-11T13:34:01;100566.37;;;26.74;32.71
71299;BME280;59083;47.974;21.722;2022-08-11T13:37:03;100570.13;;;26.79;32.40
71299;BME280;59083;47.974;21.722;2022-08-11T13:40:05;100564.25;;;26.66;32.33
71299;BME280;59083;47.974;21.722;2022-08-11T13:43:08;100563.22;;;26.62;32.36
71299;BME280;59083;47.974;21.722;2022-08-11T13:46:10;100559.03;;;26.70;32.10
71299;BME280;59083;47.974;21.722;2022-08-11T13:49:24;100538.13;;;26.55;32.39
71299;BME280;59083;47.974;21.722;2022-08-11T13:52:27;100554.25;;;26.81;32.35
71299;BME280;59083;47.974;21.722;2022-08-11T13:55:29;100540.12;;;26.73;31.83
71299;BME280;59083;47.974;21.722;2022-08-11T13:58:31;100534.66;;;26.73;32.16
71299;BME280;59083;47.974;21.722;2022-08-11T14:01:36;100529.72;;;26.76;32.16
71299;BME280;59083;47.974;21.722;2022-08-11T14:04:43;100528.19;;;26.64;31.88
71299;BME280;59083;47.974;21.722;2022-08-11T14:07:51;100529.25;;;26.68;31.82
71299;BME280;59083;47.974;21.722;2022-08-11T14:10:58;100531.09;;;26.73;31.99
71299;BME280;59083;47.974;21.722;2022-08-11T14:14:22;100524.81;;;26.72;32.02
71299;BME280;59083;47.974;21.722;2022-08-11T14:17:25;100527.88;;;26.66;32.08
71299;BME280;59083;47.974;21.722;2022-08-11T14:20:31;100527.59;;;26.67;32.03
71299;BME280;59083;47.974;21.722;2022-08-11T14:23:53;100526.69;;;26.53;32.06
71299;BME280;59083;47.974;21.722;2022-08-11T14:26:55;100516.78;;;26.57;32.35
71299;BME280;59083;47.974;21.722;2022-08-11T14:29:57;100510.03;;;26.73;32.07
71299;BME280;59083;47.974;21.722;2022-08-11T14:32:58;100516.69;;;26.91;32.03
71299;BME280;59083;47.974;21.722;2022-08-11T14:36:04;100507.84;;;26.99;31.56
71299;BME280;59083;47.974;21.722;2022-08-11T14:39:12;100510.72;;;27.08;31.68
71299;BME280;59083;47.974;21.722;2022-08-11T14:42:16;100512.06;;;26.87;31.65
71299;BME280;59083;47.974;21.722;2022-08-11T14:45:38;100519.00;;;26.79;31.92
71299;BME280;59083;47.974;21.722;2022-08-11T14:48:58;100519.34;;;26.72;32.49
71299;BME280;59083;47.974;21.722;2022-08-11T14:52:02;100504.38;;;26.41;32.83
71299;BME280;59083;47.974;21.722;2022-08-11T14:55:05;100517.22;;;26.41;32.83
71299;BME280;59083;47.974;21.722;2022-08-11T14:58:28;100502.88;;;26.54;32.65
71299;BME280;59083;47.974;21.722;2022-08-11T15:01:30;100515.31;;;26.41;32.42
71299;BME280;59083;47.974;21.722;2022-08-11T15:04:50;100507.22;;;26.31;32.43
71299;BME280;59083;47.974;21.722;2022-08-11T15:07:54;100505.59;;;26.30;32.56
71299;BME280;59083;47.974;21.722;2022-08-11T15:10:57;100502.53;;;26.37;32.14
71299;BME280;59083;47.974;21.722;2022-08-11T15:14:00;100510.47;;;26.33;32.17
71299;BME280;59083;47.974;21.722;2022-08-11T15:17:04;100503.84;;;26.39;32.15
71299;BME280;59083;47.974;21.722;2022-08-11T15:20:12;100500.66;;;26.56;32.42
71299;BME280;59083;47.974;21.722;2022-08-11T15:23:33;100498.19;;;26.59;33.74
71299;BME280;59083;47.974;21.722;2022-08-11T15:26:53;100497.63;;;26.57;33.81
71299;BME280;59083;47.974;21.722;2022-08-11T15:30:14;100508.75;;;26.42;34.18
71299;BME280;59083;47.974;21.722;2022-08-11T15:33:36;100515.25;;;26.17;34.29
71299;BME280;59083;47.974;21.722;2022-08-11T15:37:02;100501.66;;;25.78;35.06
71299;BME280;59083;47.974;21.722;2022-08-11T15:40:28;100502.69;;;25.82;35.12
71299;BME280;59083;47.974;21.722;2022-08-11T15:43:52;100500.66;;;25.64;35.54
71299;BME280;59083;47.974;21.722;2022-08-11T15:47:13;100502.34;;;25.55;35.82
71299;BME280;59083;47.974;21.722;2022-08-11T15:50:17;100502.38;;;25.50;35.91
71299;BME280;59083;47.974;21.722;2022-08-11T15:53:24;100496.41;;;25.43;36.47
71299;BME280;59083;47.974;21.722;2022-08-11T15:56:28;100509.03;;;25.34;36.52
71299;BME280;59083;47.974;21.722;2022-08-11T15:59:34;100509.56;;;25.31;37.05
71299;BME280;59083;47.974;21.722;2022-08-11T16:02:56;100502.03;;;25.12;37.95
71299;BME280;59083;47.974;21.722;2022-08-11T16:06:19;100504.53;;;25.04;38.54
71299;BME280;59083;47.974;21.722;2022-08-11T16:09:25;100508.94;;;24.95;38.45
71299;BME280;59083;47.974;21.722;2022-08-11T16:12:30;100511.66;;;25.00;38.85
71299;BME280;59083;47.974;21.722;2022-08-11T16:15:38;100505.94;;;24.91;38.75
71299;BME280;59083;47.974;21.722;2022-08-11T16:19:00;100504.34;;;24.75;39.00
71299;BME280;59083;47.974;21.722;2022-08-11T16:22:06;100516.09;;;24.70;38.93
71299;BME280;59083;47.974;21.722;2022-08-11T16:25:14;100514.75;;;24.63;38.97
71299;BME280;59083;47.974;21.722;2022-08-11T16:28:17;100508.19;;;24.69;38.76
71299;BME280;59083;47.974;21.722;2022-08-11T16:31:22;100510.38;;;24.67;38.68
71299;BME280;59083;47.974;21.722;2022-08-11T16:34:24;100519.66;;;24.66;38.57
71299;BME280;59083;47.974;21.722;2022-08-11T16:37:45;100521.87;;;24.54;38.47
71299;BME280;59083;47.974;21.722;2022-08-11T16:41:08;100520.75;;;24.50;38.34
71299;BME280;59083;47.974;21.722;2022-08-11T16:44:12;100512.06;;;24.48;38.35
71299;BME280;59083;47.974;21.722;2022-08-11T16:47:33;100516.44;;;24.39;38.42
71299;BME280;59083;47.974;21.722;2022-08-11T16:50:36;100522.97;;;24.33;38.59
71299;BME280;59083;47.974;21.722;2022-08-11T16:53:38;100527.91;;;24.20;38.92
71299;BME280;59083;47.974;21.722;2022-08-11T16:56:43;100534.44;;;24.14;39.22
71299;BME280;59083;47.974;21.722;2022-08-11T16:59:47;100530.06;;;24.08;39.85
71299;BME280;59083;47.974;21.722;2022-08-11T17:02:51;100533.88;;;24.07;39.85
71299;BME280;59083;47.974;21.722;2022-08-11T17:06:12;100526.81;;;23.96;40.33
71299;BME280;59083;47.974;21.722;2022-08-11T17:09:34;100525.44;;;23.88;40.70
71299;BME280;59083;47.974;21.722;2022-08-11T17:12:56;100540.12;;;23.77;41.40
71299;BME280;59083;47.974;21.722;2022-08-11T17:16:13;100517.53;;;23.77;41.48
71299;BME280;59083;47.974;21.722;2022-08-11T17:22:20;100535.19;;;23.54;42.19
71299;BME280;59083;47.974;21.722;2022-08-11T17:25:42;100526.19;;;23.48;42.03
71299;BME280;59083;47.974;21.722;2022-08-11T17:28:47;100529.44;;;23.40;42.34
71299;BME280;59083;47.974;21.722;2022-08-11T17:31:54;100528.03;;;23.33;42.42
71299;BME280;59083;47.974;21.722;2022-08-11T17:35:18;100533.16;;;23.19;43.09
71299;BME280;59083;47.974;21.722;2022-08-11T17:38:33;100539.09;;;23.06;43.81
71299;BME280;59083;47.974;21.722;2022-08-11T17:41:37;100537.44;;;22.95;43.91
71299;BME280;59083;47.974;21.722;2022-08-11T17:44:59;100537.34;;;22.85;43.89
71299;BME280;59083;47.974;21.722;2022-08-11T17:48:21;100541.41;;;22.77;44.37
71299;BME280;59083;47.974;21.722;2022-08-11T17:51:25;100546.47;;;22.63;45.04
71299;BME280;59083;47.974;21.722;2022-08-11T17:54:55;100544.31;;;22.65;45.15
71299;BME280;59083;47.974;21.722;2022-08-11T17:58:16;100549.13;;;22.53;45.35
71299;BME280;59083;47.974;21.722;2022-08-11T18:01:38;100548.47;;;22.36;46.60
71299;BME280;59083;47.974;21.722;2022-08-11T18:04:42;100548.44;;;22.31;46.91
71299;BME280;59083;47.974;21.722;2022-08-11T18:07:45;100552.16;;;22.20;47.76
71299;BME280;59083;47.974;21.722;2022-08-11T18:11:07;100551.31;;;22.19;49.04
71299;BME280;59083;47.974;21.722;2022-08-11T18:14:29;100558.28;;;22.10;49.01
71299;BME280;59083;47.974;21.722;2022-08-11T18:17:50;100562.81;;;22.00;49.42
71299;BME280;59083;47.974;21.722;2022-08-11T18:21:13;100574.09;;;21.87;50.35
71299;BME280;59083;47.974;21.722;2022-08-11T18:24:37;100570.50;;;21.81;50.08
71299;BME280;59083;47.974;21.722;2022-08-11T18:27:59;100570.19;;;21.77;50.55
71299;BME280;59083;47.974;21.722;2022-08-11T18:31:20;100569.06;;;21.73;50.58
71299;BME280;59083;47.974;21.722;2022-08-11T18:34:42;100566.94;;;21.75;50.70
71299;BME280;59083;47.974;21.722;2022-08-11T18:38:05;100574.41;;;21.63;51.53
71299;BME280;59083;47.974;21.722;2022-08-11T18:41:28;100575.47;;;21.62;51.24
71299;BME280;59083;47.974;21.722;2022-08-11T18:44:52;100584.88;;;21.55;51.48
71299;BME280;59083;47.974;21.722;2022-08-11T18:48:16;100584.00;;;21.49;51.69
71299;BME280;59083;47.974;21.722;2022-08-11T18:51:40;100584.19;;;21.42;51.88
71299;BME280;59083;47.974;21.722;2022-08-11T18:55:08;100594.62;;;21.29;52.52
71299;BME280;59083;47.974;21.722;2022-08-11T18:58:31;100592.97;;;21.28;52.40
71299;BME280;59083;47.974;21.722;2022-08-11T19:01:54;100597.09;;;21.14;53.12
71299;BME280;59083;47.974;21.722;2022-08-11T19:05:17;100607.94;;;21.14;52.54
71299;BME280;59083;47.974;21.722;2022-08-11T19:08:40;100603.59;;;21.13;53.19
71299;BME280;59083;47.974;21.722;2022-08-11T19:12:03;100610.44;;;20.98;53.36
71299;BME280;59083;47.974;21.722;2022-08-11T19:15:24;100612.50;;;20.91;53.78
71299;BME280;59083;47.974;21.722;2022-08-11T19:18:46;100604.38;;;20.91;53.57
71299;BME280;59083;47.974;21.722;2022-08-11T19:22:07;100601.12;;;20.89;53.91
71299;BME280;59083;47.974;21.722;2022-08-11T19:25:29;100611.62;;;20.86;53.95
71299;BME280;59083;47.974;21.722;2022-08-11T19:28:51;100614.59;;;20.84;54.05
71299;BME280;59083;47.974;21.722;2022-08-11T19:32:12;100605.75;;;20.72;54.59
71299;BME280;59083;47.974;21.722;2022-08-11T19:35:33;100605.75;;;20.72;54.77
71299;BME280;59083;47.974;21.722;2022-08-11T19:38:54;100614.13;;;20.54;55.19
71299;BME280;59083;47.974;21.722;2022-08-11T19:42:14;100600.34;;;20.55;54.86
71299;BME280;59083;47.974;21.722;2022-08-11T19:45:35;100614.13;;;20.54;54.97